Time;durP1;ratioP1;P1;durP2;ratioP2;P2;SDS_P1;SDS_P2;PMS_P1;PMS_P2;Temp;Humidity;BMP_temperature;BMP_pressure;BME280_temperature;BME280_humidity;BME280_pressure;Samples;Min_cycle;Max_cycle;Signal;HPM_P1;HPM_P2
2021/01/07 00:01:31;;;;;;;13.25;9.48;;;;;;;3.59;76.52;98639.25;4888108;29;20228;-80
2021/01/07 00:08:13;;;;;;;14.30;9.55;;;;;;;3.59;76.63;98643.72;4903025;29;20217;-79
2021/01/07 00:10:39;;;;;;;13.77;9.23;;;;;;;3.51;77.10;98645.84;4917200;29;20225;-78
2021/01/07 00:13:05;;;;;;;12.88;9.90;;;;;;;3.41;77.44;98644.56;4881086;29;20673;-79
2021/01/07 00:15:33;;;;;;;14.80;10.68;;;;;;;3.48;77.41;98648.66;4905657;29;20229;-80
2021/01/07 00:17:59;;;;;;;14.52;9.68;;;;;;;3.46;77.34;98648.72;4870402;29;20214;-80
2021/01/07 00:20:25;;;;;;;12.88;9.40;;;;;;;3.24;77.63;98647.97;4872484;29;20222;-79
2021/01/07 00:22:51;;;;;;;14.85;10.45;;;;;;;3.34;78.13;98651.06;4873854;29;20228;-80
2021/01/07 00:25:17;;;;;;;11.85;9.00;;;;;;;3.33;77.96;98647.53;4890194;29;20230;-79
2021/01/07 00:27:43;;;;;;;13.68;9.80;;;;;;;3.45;77.63;98657.63;4890347;29;20237;-79
2021/01/07 00:30:10;;;;;;;13.95;9.75;;;;;;;3.46;77.62;98654.03;4873716;29;20230;-78
2021/01/07 00:32:36;;;;;;;16.48;10.73;;;;;;;3.45;78.00;98647.00;4891951;29;20193;-79
2021/01/07 00:35:03;;;;;;;16.88;11.35;;;;;;;3.54;77.58;98643.91;4892146;29;20226;-78
2021/01/07 00:37:29;;;;;;;15.60;9.65;;;;;;;3.50;77.82;98654.75;4873806;29;20241;-79
2021/01/07 00:39:55;;;;;;;14.13;10.32;;;;;;;3.45;77.71;98647.00;4904525;29;20241;-79
2021/01/07 00:42:21;;;;;;;14.77;10.10;;;;;;;3.44;77.86;98645.28;4874461;29;20225;-80
2021/01/07 00:44:47;;;;;;;14.52;10.38;;;;;;;3.37;78.03;98653.56;4895409;29;20206;-79
2021/01/07 00:47:14;;;;;;;13.85;10.40;;;;;;;3.49;78.35;98645.06;4909680;29;20230;-79
2021/01/07 00:49:44;;;;;;;14.57;10.45;;;;;;;3.54;77.86;98643.91;4886378;29;20267;-79
2021/01/07 00:52:12;;;;;;;17.52;12.10;;;;;;;3.60;77.43;98646.28;4896386;29;20293;-80
2021/01/07 00:54:39;;;;;;;15.20;11.10;;;;;;;3.59;77.24;98644.56;4898754;29;20270;-79
2021/01/07 00:57:07;;;;;;;14.75;11.35;;;;;;;3.57;77.85;98640.25;4898894;29;20573;-79
2021/01/07 00:59:33;;;;;;;16.05;11.60;;;;;;;3.45;77.65;98635.50;4876576;29;20239;-78
2021/01/07 01:01:59;;;;;;;14.63;11.15;;;;;;;3.52;77.67;98636.97;4882810;29;20226;-79
2021/01/07 01:04:25;;;;;;;19.00;12.25;;;;;;;3.48;77.71;98638.03;4867873;29;20309;-79
2021/01/07 01:06:51;;;;;;;19.80;11.93;;;;;;;3.45;78.12;98636.38;4886964;29;20236;-79
2021/01/07 01:09:18;;;;;;;20.70;12.60;;;;;;;3.39;78.60;98636.63;4888394;29;20222;-79
2021/01/07 01:11:45;;;;;;;21.30;12.80;;;;;;;3.44;78.31;98641.75;4885755;29;20571;-79
2021/01/07 01:14:17;;;;;;;20.10;13.25;;;;;;;3.39;78.56;98641.94;4882820;29;20225;-79
2021/01/07 01:16:46;;;;;;;21.20;14.05;;;;;;;3.28;78.90;98635.41;4880516;29;20237;-80
2021/01/07 01:19:14;;;;;;;19.63;13.50;;;;;;;3.35;79.05;98639.50;4884357;29;20701;-79
2021/01/07 01:21:40;;;;;;;19.88;13.73;;;;;;;3.35;78.84;98637.69;4895403;29;20233;-79
2021/01/07 01:24:06;;;;;;;20.63;14.73;;;;;;;3.41;79.12;98637.41;4884567;29;20198;-79
2021/01/07 01:26:32;;;;;;;25.95;15.25;;;;;;;3.33;78.68;98642.22;4907817;29;20214;-79
2021/01/07 01:28:58;;;;;;;20.80;14.60;;;;;;;3.32;79.08;98643.16;4880155;29;20217;-79
2021/01/07 01:31:24;;;;;;;22.90;14.93;;;;;;;3.25;79.53;98644.38;4878573;29;20237;-79
2021/01/07 01:33:50;;;;;;;25.70;13.77;;;;;;;3.42;79.32;98636.50;4903695;28;20258;-80
2021/01/07 01:36:25;;;;;;;19.52;13.60;;;;;;;3.35;79.21;98640.34;4895753;29;20202;-80
2021/01/07 01:38:52;;;;;;;22.60;15.23;;;;;;;3.60;78.31;98640.13;4885912;29;20214;-80
2021/01/07 01:41:18;;;;;;;23.38;14.52;;;;;;;3.56;78.47;98639.41;4893679;29;20732;-79
2021/01/07 01:43:44;;;;;;;22.33;15.93;;;;;;;3.36;78.91;98639.44;4898897;29;20222;-80
2021/01/07 01:46:11;;;;;;;21.13;14.48;;;;;;;3.42;78.50;98646.28;4884685;29;20282;-80
2021/01/07 01:48:39;;;;;;;21.08;13.73;;;;;;;3.44;78.71;98641.75;4916623;29;20218;-80
2021/01/07 01:51:06;;;;;;;21.85;13.68;;;;;;;3.38;79.10;98640.22;4903623;29;20217;-80
2021/01/07 01:53:32;;;;;;;21.00;14.13;;;;;;;3.55;77.94;98643.00;4871328;29;20202;-81
2021/01/07 01:55:59;;;;;;;20.70;14.88;;;;;;;3.58;78.04;98642.84;4882522;29;20249;-81
2021/01/07 01:58:26;;;;;;;22.42;15.90;;;;;;;3.43;78.54;98640.91;4865116;29;20234;-80
2021/01/07 02:00:52;;;;;;;20.80;13.52;;;;;;;3.47;78.38;98645.13;4880810;29;20235;-80
2021/01/07 02:03:19;;;;;;;22.00;13.77;;;;;;;3.46;78.48;98642.56;4900331;29;20242;-80
2021/01/07 02:05:46;;;;;;;25.88;15.70;;;;;;;3.42;78.60;98641.84;4888587;29;20237;-80
2021/01/07 02:08:14;;;;;;;19.90;13.50;;;;;;;3.41;78.60;98644.56;4879351;29;20226;-80
2021/01/07 02:10:41;;;;;;;21.63;15.00;;;;;;;3.38;78.69;98637.56;4879388;29;20242;-80
2021/01/07 02:13:08;;;;;;;25.33;16.45;;;;;;;3.45;78.42;98646.13;4906912;29;20240;-80
2021/01/07 02:15:41;;;;;;;20.23;15.18;;;;;;;3.40;78.44;98642.81;4884721;29;20234;-80
2021/01/07 02:18:10;;;;;;;22.40;15.05;;;;;;;3.56;77.86;98638.53;4901348;29;20223;-80
2021/01/07 02:20:39;;;;;;;20.33;14.75;;;;;;;3.46;77.72;98642.56;4878714;29;20693;-80
2021/01/07 02:23:06;;;;;;;22.27;15.40;;;;;;;3.51;77.86;98640.53;4891386;29;20236;-79
2021/01/07 02:25:32;;;;;;;24.33;15.60;;;;;;;3.39;77.48;98636.63;4898970;29;20226;-80
2021/01/07 02:27:58;;;;;;;23.95;15.57;;;;;;;3.45;77.72;98641.69;4897096;29;20228;-80
2021/01/07 02:30:24;;;;;;;20.83;14.40;;;;;;;3.36;77.73;98635.91;4892786;29;20298;-80
2021/01/07 02:32:51;;;;;;;21.52;15.20;;;;;;;3.36;77.77;98636.78;4875837;29;20202;-80
2021/01/07 02:35:17;;;;;;;22.65;14.15;;;;;;;3.37;77.36;98638.50;4876386;29;21029;-79
2021/01/07 02:37:43;;;;;;;21.45;14.18;;;;;;;3.37;77.48;98633.19;4886649;29;20248;-81
2021/01/07 02:40:10;;;;;;;20.73;14.70;;;;;;;3.47;77.32;98634.50;4874862;29;20237;-80
2021/01/07 02:42:37;;;;;;;27.58;16.02;;;;;;;3.47;77.27;98631.84;4893486;29;20296;-80
2021/01/07 02:45:05;;;;;;;22.55;15.32;;;;;;;3.43;77.21;98640.91;4877086;29;20678;-80
2021/01/07 02:47:31;;;;;;;27.55;16.75;;;;;;;3.45;77.35;98643.47;4879111;29;20210;-80
2021/01/07 02:49:57;;;;;;;26.70;16.98;;;;;;;3.45;78.10;98627.50;4874216;29;20227;-80
2021/01/07 02:52:23;;;;;;;25.35;15.82;;;;;;;3.52;77.38;98629.00;4874465;29;20293;-80
2021/01/07 02:54:49;;;;;;;25.55;16.45;;;;;;;3.45;77.79;98628.38;4876891;29;20262;-80
2021/01/07 02:57:16;;;;;;;27.15;16.73;;;;;;;3.56;77.78;98620.81;4875545;29;20209;-80
2021/01/07 02:59:42;;;;;;;27.00;16.48;;;;;;;3.60;77.25;98626.84;4872963;29;20265;-80
2021/01/07 03:02:08;;;;;;;22.95;15.85;;;;;;;3.57;77.30;98622.53;4871372;29;20707;-80
2021/01/07 03:04:34;;;;;;;24.50;16.80;;;;;;;3.44;78.01;98618.69;4854458;29;20234;-79
2021/01/07 03:07:00;;;;;;;27.30;17.38;;;;;;;3.46;77.90;98621.28;4875437;29;20226;-80
2021/01/07 03:09:26;;;;;;;28.02;17.85;;;;;;;3.40;77.88;98617.09;4876390;29;20236;-80
2021/01/07 03:11:52;;;;;;;25.95;16.75;;;;;;;3.41;78.25;98617.97;4878761;29;20199;-80
2021/01/07 03:14:23;;;;;;;26.85;16.67;;;;;;;3.47;78.19;98623.84;4861618;29;20724;-80
2021/01/07 03:16:49;;;;;;;24.75;15.85;;;;;;;3.44;78.01;98613.38;4874851;29;20226;-80
2021/01/07 03:19:15;;;;;;;19.92;14.95;;;;;;;3.45;77.76;98623.06;4880274;29;20481;-80
2021/01/07 03:21:42;;;;;;;22.73;14.63;;;;;;;3.51;77.71;98617.47;4873037;29;20226;-79
2021/01/07 03:24:09;;;;;;;22.67;15.30;;;;;;;3.53;77.58;98617.41;4887128;29;20220;-80
2021/01/07 03:26:36;;;;;;;20.63;14.38;;;;;;;3.53;77.38;98620.94;4859571;29;20207;-80
2021/01/07 03:29:03;;;;;;;23.95;14.77;;;;;;;3.41;77.67;98613.50;4899718;29;20253;-79
2021/01/07 03:31:30;;;;;;;29.85;17.15;;;;;;;3.38;78.27;98620.75;4882906;29;20231;-79
2021/01/07 03:33:56;;;;;;;25.95;14.82;;;;;;;3.49;78.10;98610.50;4913590;29;20233;-80
2021/01/07 03:36:23;;;;;;;23.10;15.38;;;;;;;3.47;77.88;98623.00;4893480;29;20233;-80
2021/01/07 03:38:49;;;;;;;23.73;14.85;;;;;;;3.44;78.24;98617.81;4872147;29;20206;-80
2021/01/07 03:41:15;;;;;;;24.80;15.68;;;;;;;3.36;77.88;98620.84;4906490;29;20294;-80
2021/01/07 03:43:41;;;;;;;27.00;16.10;;;;;;;3.32;78.36;98616.59;4884285;29;20293;-80
2021/01/07 03:46:07;;;;;;;25.48;16.58;;;;;;;3.40;77.98;98617.09;4888071;29;20305;-81
2021/01/07 03:48:33;;;;;;;24.10;16.27;;;;;;;3.30;77.88;98617.59;4894982;29;20225;-80
2021/01/07 03:51:00;;;;;;;25.50;15.57;;;;;;;3.45;77.37;98614.22;4882121;29;20296;-80
2021/01/07 03:53:26;;;;;;;25.38;16.60;;;;;;;3.24;77.92;98618.75;4899602;29;20674;-80
2021/01/07 03:55:52;;;;;;;23.70;15.80;;;;;;;3.26;78.55;98623.94;4885023;29;20222;-81
2021/01/07 03:58:18;;;;;;;23.45;15.85;;;;;;;3.18;78.55;98626.97;4887160;28;20253;-80
2021/01/07 04:00:44;;;;;;;26.70;16.02;;;;;;;3.14;78.71;98628.03;4876536;29;20235;-80
2021/01/07 04:03:10;;;;;;;29.92;18.50;;;;;;;3.25;78.56;98627.56;4868694;29;20198;-81
2021/01/07 04:05:36;;;;;;;24.63;16.38;;;;;;;3.14;78.60;98625.38;4872770;29;20202;-80
2021/01/07 04:08:03;;;;;;;27.27;17.63;;;;;;;3.19;78.88;98625.16;4894819;29;20324;-80
2021/01/07 04:10:29;;;;;;;27.40;16.92;;;;;;;3.22;78.67;98628.53;4878974;29;20234;-80
2021/01/07 04:12:55;;;;;;;24.02;15.80;;;;;;;3.31;78.66;98625.50;4872658;29;20232;-80
2021/01/07 04:15:21;;;;;;;26.90;15.98;;;;;;;3.36;78.03;98617.31;4883940;29;20257;-81
2021/01/07 04:17:47;;;;;;;24.40;15.23;;;;;;;3.35;77.40;98624.41;4899593;29;20209;-81
2021/01/07 04:20:13;;;;;;;20.58;14.02;;;;;;;3.33;77.93;98625.44;4881853;29;20229;-81
2021/01/07 04:22:40;;;;;;;27.73;16.90;;;;;;;3.18;78.28;98621.66;4887691;29;20232;-81
2021/01/07 04:25:08;;;;;;;26.85;16.33;;;;;;;3.05;78.41;98620.47;4869969;29;20241;-80
2021/01/07 04:27:34;;;;;;;27.98;16.40;;;;;;;3.06;78.50;98624.84;4876764;29;20261;-80
2021/01/07 04:30:00;;;;;;;25.63;15.43;;;;;;;3.10;78.20;98630.88;4861103;29;20317;-80
2021/01/07 04:32:26;;;;;;;27.63;17.42;;;;;;;3.17;78.25;98624.38;4881269;29;20202;-81
2021/01/07 04:34:52;;;;;;;25.60;15.85;;;;;;;3.10;78.05;98618.50;4876890;29;20225;-81
2021/01/07 04:37:18;;;;;;;24.25;15.05;;;;;;;3.18;77.95;98624.31;4876006;29;20219;-80
2021/01/07 04:39:44;;;;;;;26.58;15.30;;;;;;;3.28;77.33;98612.34;4890175;29;20759;-81
2021/01/07 04:42:12;;;;;;;28.05;16.35;;;;;;;3.29;77.18;98614.06;4882403;29;20483;-80
2021/01/07 04:44:39;;;;;;;22.40;14.40;;;;;;;3.26;76.77;98613.34;4892806;29;20203;-79
2021/01/07 04:47:05;;;;;;;25.25;16.60;;;;;;;3.20;76.59;98614.47;4886782;29;20225;-79
2021/01/07 04:49:31;;;;;;;28.58;15.50;;;;;;;3.14;76.18;98612.09;4897034;29;20234;-79
2021/01/07 04:51:58;;;;;;;21.67;14.15;;;;;;;3.09;75.76;98610.59;4895168;29;20229;-78
2021/01/07 04:54:25;;;;;;;27.05;15.48;;;;;;;3.10;75.87;98602.56;4885887;29;20230;-77
2021/01/07 04:56:51;;;;;;;24.90;15.18;;;;;;;3.08;75.95;98611.50;4884355;29;20359;-78
2021/01/07 04:59:17;;;;;;;27.80;15.02;;;;;;;3.05;75.59;98612.50;4890745;29;20313;-78
2021/01/07 05:01:45;;;;;;;25.17;13.95;;;;;;;2.92;75.32;98618.41;4878351;29;20231;-80
2021/01/07 05:04:15;;;;;;;24.80;13.43;;;;;;;2.87;75.46;98604.47;4887077;29;20232;-78
2021/01/07 05:06:42;;;;;;;23.25;14.60;;;;;;;2.92;75.70;98616.63;4881301;29;20227;-78
2021/01/07 05:09:08;;;;;;;22.73;13.25;;;;;;;2.87;74.74;98610.66;4893886;29;20222;-79
2021/01/07 05:11:35;;;;;;;25.52;14.32;;;;;;;2.94;74.97;98614.75;4895846;29;20209;-80
2021/01/07 05:14:10;;;;;;;24.15;13.70;;;;;;;2.98;74.89;98618.16;4874188;29;20234;-78
2021/01/07 05:16:37;;;;;;;26.88;15.60;;;;;;;2.95;74.82;98611.16;4891415;29;20226;-79
2021/01/07 05:19:05;;;;;;;22.35;12.93;;;;;;;2.96;74.89;98604.94;4889708;29;20228;-82
2021/01/07 05:21:34;;;;;;;22.35;13.45;;;;;;;3.04;74.89;98608.13;4891040;29;20250;-80
2021/01/07 05:24:02;;;;;;;25.05;13.85;;;;;;;3.13;74.28;98601.53;4890148;29;20285;-79
2021/01/07 05:26:29;;;;;;;22.98;12.70;;;;;;;3.07;73.54;98613.28;4883706;29;20198;-79
2021/01/07 05:28:58;;;;;;;24.23;15.27;;;;;;;3.04;73.72;98607.25;4889073;29;20253;-79
2021/01/07 05:31:25;;;;;;;23.90;13.75;;;;;;;2.90;73.75;98605.19;4904927;29;20237;-79
2021/01/07 05:33:53;;;;;;;21.25;12.65;;;;;;;2.94;73.70;98609.44;4895199;29;20215;-79
2021/01/07 05:36:30;;;;;;;25.95;14.60;;;;;;;2.92;74.00;98602.47;4906937;29;20238;-79
2021/01/07 05:39:03;;;;;;;23.63;12.80;;;;;;;2.72;74.27;98600.69;4891861;29;20764;-79
2021/01/07 05:41:29;;;;;;;22.40;12.68;;;;;;;2.82;74.56;98606.47;4881130;29;20218;-79
2021/01/07 05:44:04;;;;;;;23.83;14.88;;;;;;;2.92;74.16;98607.78;4878639;29;20222;-78
2021/01/07 05:46:31;;;;;;;22.77;13.70;;;;;;;2.97;74.00;98605.81;4880520;29;20252;-80
2021/01/07 05:48:57;;;;;;;27.08;15.13;;;;;;;2.94;74.13;98600.59;4876564;29;20221;-80
2021/01/07 05:51:28;;;;;;;27.45;14.50;;;;;;;2.85;74.34;98607.22;4897713;29;20230;-80
2021/01/07 05:53:56;;;;;;;27.25;15.07;;;;;;;2.84;74.41;98608.09;4902151;29;20261;-80
2021/01/07 05:56:24;;;;;;;24.15;13.85;;;;;;;2.94;74.15;98604.13;4859599;29;20253;-79
2021/01/07 05:58:52;;;;;;;27.45;15.20;;;;;;;2.95;74.18;98605.84;4889773;29;20221;-79
2021/01/07 06:01:20;;;;;;;24.83;14.05;;;;;;;2.98;74.22;98597.78;4885133;29;20237;-78
2021/01/07 06:03:51;;;;;;;27.95;13.32;;;;;;;2.82;73.96;98603.81;4897588;29;20226;-78
2021/01/07 06:06:23;;;;;;;25.67;14.85;;;;;;;2.81;74.49;98599.41;4893378;29;20201;-78
2021/01/07 06:08:58;;;;;;;28.75;15.55;;;;;;;2.84;74.46;98600.16;4893012;29;20266;-78
2021/01/07 06:11:29;;;;;;;24.67;12.23;;;;;;;2.94;73.85;98601.47;4887287;29;20224;-79
2021/01/07 06:13:56;;;;;;;23.42;12.80;;;;;;;3.00;73.86;98609.19;4876394;29;20597;-79
2021/01/07 06:16:24;;;;;;;26.88;13.70;;;;;;;2.96;73.52;98615.53;4886711;29;20653;-79
2021/01/07 06:18:53;;;;;;;25.88;13.40;;;;;;;3.00;73.37;98611.84;4887827;29;20237;-79
2021/01/07 06:21:21;;;;;;;26.70;13.60;;;;;;;2.94;73.21;98601.47;4892707;29;20238;-78
2021/01/07 06:23:48;;;;;;;27.95;14.70;;;;;;;3.01;73.50;98613.56;4893691;29;20225;-78
2021/01/07 06:26:18;;;;;;;22.75;11.88;;;;;;;3.00;73.41;98603.88;4886924;29;20226;-78
2021/01/07 06:28:46;;;;;;;26.10;14.93;;;;;;;3.00;73.36;98601.22;4888203;29;20235;-79
2021/01/07 06:31:17;;;;;;;27.50;13.48;;;;;;;3.06;73.19;98600.06;4865359;29;20274;-79
2021/01/07 06:33:44;;;;;;;21.55;12.15;;;;;;;3.04;72.79;98602.81;4891098;29;20280;-79
2021/01/07 06:36:11;;;;;;;27.73;12.57;;;;;;;2.92;73.20;98600.69;4880898;29;20201;-79
2021/01/07 06:38:48;;;;;;;22.48;11.95;;;;;;;2.80;73.43;98598.56;4886874;29;20211;-79
2021/01/07 06:41:16;;;;;;;24.10;13.20;;;;;;;2.81;73.62;98612.69;4873111;29;20241;-79
2021/01/07 06:43:43;;;;;;;26.77;13.80;;;;;;;2.82;73.73;98602.00;4880388;29;20311;-79
2021/01/07 06:46:10;;;;;;;27.27;13.57;;;;;;;2.84;73.39;98597.50;4880906;29;20233;-79
2021/01/07 06:48:41;;;;;;;21.20;13.85;;;;;;;2.81;73.90;98589.66;4868026;29;20261;-79
2021/01/07 06:51:07;;;;;;;27.02;15.25;;;;;;;2.94;73.32;98592.63;4864690;29;20218;-80
2021/01/07 06:53:36;;;;;;;22.63;13.20;;;;;;;2.94;72.89;98596.16;4881643;29;20236;-80
2021/01/07 06:56:15;;;;;;;21.58;13.02;;;;;;;2.84;72.98;98594.84;4901852;29;20273;-79
2021/01/07 06:58:43;;;;;;;21.98;12.40;;;;;;;2.79;73.11;98596.84;4886333;29;20260;-79
2021/01/07 07:01:18;;;;;;;25.02;12.52;;;;;;;2.95;72.91;98592.59;4899247;29;20230;-79
2021/01/07 07:03:48;;;;;;;22.05;13.93;;;;;;;3.01;72.98;98591.47;4890478;29;20242;-79
2021/01/07 07:06:17;;;;;;;25.00;12.57;;;;;;;2.95;73.26;98597.06;4905458;29;20214;-79
2021/01/07 07:08:48;;;;;;;24.85;13.35;;;;;;;3.02;72.59;98596.69;4868864;29;20692;-79
2021/01/07 07:11:34;;;;;;;22.23;12.70;;;;;;;2.90;73.04;98602.53;4879339;28;20285;-80
2021/01/07 07:14:03;;;;;;;24.52;12.48;;;;;;;2.93;73.00;98602.41;4871984;29;20230;-79
2021/01/07 07:16:37;;;;;;;23.25;12.27;;;;;;;2.95;73.02;98608.50;4882996;29;20230;-78
2021/01/07 07:19:05;;;;;;;25.05;12.90;;;;;;;2.98;73.11;98610.19;4871987;29;20225;-79
2021/01/07 07:21:32;;;;;;;24.67;13.15;;;;;;;2.94;73.31;98609.44;4888236;29;20226;-80
2021/01/07 07:24:07;;;;;;;20.58;12.25;;;;;;;2.99;72.96;98615.44;4890385;29;20202;-78
2021/01/07 07:26:40;;;;;;;25.65;13.80;;;;;;;2.99;72.99;98614.56;4867391;29;20237;-79
2021/01/07 07:29:10;;;;;;;21.38;13.13;;;;;;;2.87;73.14;98613.31;4877728;29;20256;-79
2021/01/07 07:31:46;;;;;;;22.67;13.20;;;;;;;2.89;73.09;98622.06;4878250;29;20254;-79
2021/01/07 07:34:13;;;;;;;21.25;12.10;;;;;;;2.88;72.82;98615.03;4905054;29;20209;-79
2021/01/07 07:36:40;;;;;;;19.95;12.07;;;;;;;2.86;73.17;98629.28;4884983;29;20226;-79
2021/01/07 07:39:08;;;;;;;21.90;11.75;;;;;;;2.86;73.25;98624.84;4868979;29;20226;-79
2021/01/07 07:42:08;;;;;;;25.23;13.85;;;;;;;3.03;72.84;98627.63;4868812;29;20195;-79
2021/01/07 07:44:35;;;;;;;23.70;13.02;;;;;;;3.05;72.30;98630.22;4877452;29;20237;-79
2021/01/07 07:47:01;;;;;;;22.13;10.88;;;;;;;3.07;72.58;98625.69;4867687;29;20313;-79
2021/01/07 07:49:27;;;;;;;25.08;13.55;;;;;;;3.04;72.78;98633.81;4881075;29;20230;-78
2021/01/07 07:51:53;;;;;;;25.23;13.80;;;;;;;2.87;73.71;98626.56;4871112;29;20607;-80
2021/01/07 07:54:19;;;;;;;23.02;11.73;;;;;;;3.09;73.15;98632.66;4885539;29;20713;-79
2021/01/07 07:56:45;;;;;;;24.40;14.00;;;;;;;3.05;73.11;98633.75;4869429;29;20197;-79
2021/01/07 07:59:30;;;;;;;24.20;14.63;;;;;;;2.97;73.41;98624.38;4894350;29;20225;-79
2021/01/07 08:01:57;;;;;;;25.88;14.32;;;;;;;3.04;73.32;98631.16;4899858;29;20322;-78
2021/01/07 08:04:26;;;;;;;24.70;13.57;;;;;;;3.14;72.75;98636.00;4892317;29;20229;-78
2021/01/07 08:06:52;;;;;;;23.88;13.98;;;;;;;2.93;73.59;98647.56;4873095;29;20244;-79
2021/01/07 08:09:20;;;;;;;25.77;13.65;;;;;;;2.80;74.38;98641.03;4892337;29;21353;-79
2021/01/07 08:11:47;;;;;;;28.52;15.02;;;;;;;2.76;74.79;98650.06;4879289;29;20198;-79
2021/01/07 08:14:22;;;;;;;26.25;13.90;;;;;;;2.87;74.71;98649.59;4887518;29;20265;-79
2021/01/07 08:16:53;;;;;;;28.80;15.13;;;;;;;2.95;74.36;98650.16;4876660;29;20720;-79
2021/01/07 08:19:30;;;;;;;27.88;14.68;;;;;;;2.94;74.52;98659.03;4884914;29;20225;-79
2021/01/07 08:21:56;;;;;;;28.20;15.43;;;;;;;3.06;74.03;98651.41;4893304;29;20222;-79
2021/01/07 08:24:24;;;;;;;33.08;15.80;;;;;;;3.12;73.76;98653.81;4869437;29;20615;-79
2021/01/07 08:27:00;;;;;;;26.73;14.75;;;;;;;3.20;73.62;98658.78;4887600;29;20223;-79
2021/01/07 08:29:27;;;;;;;35.25;16.65;;;;;;;3.19;73.87;98660.56;4893069;29;20297;-79
2021/01/07 08:31:55;;;;;;;29.50;15.05;;;;;;;3.18;74.04;98663.28;4887063;29;20216;-79
2021/01/07 08:34:23;;;;;;;29.35;15.23;;;;;;;3.16;73.66;98666.00;4897472;29;20238;-78
2021/01/07 08:36:50;;;;;;;32.30;16.73;;;;;;;3.01;74.24;98669.31;4888736;29;20234;-78
2021/01/07 08:39:16;;;;;;;28.65;15.68;;;;;;;3.18;73.70;98666.81;4897612;29;20302;-79
2021/01/07 08:41:44;;;;;;;29.52;16.80;;;;;;;3.23;73.74;98667.50;4913993;29;20205;-78
2021/01/07 08:44:11;;;;;;;27.50;15.23;;;;;;;3.20;73.84;98667.59;4880910;29;20249;-79
2021/01/07 08:46:43;;;;;;;27.13;15.65;;;;;;;3.19;74.10;98671.19;4894790;29;20236;-79
2021/01/07 08:49:14;;;;;;;27.88;15.35;;;;;;;3.39;73.35;98667.66;4871956;29;20229;-79
2021/01/07 08:51:45;;;;;;;27.13;14.05;;;;;;;3.40;72.96;98675.56;4870342;29;20738;-79
2021/01/07 08:54:19;;;;;;;31.48;16.55;;;;;;;3.46;73.24;98675.28;4876656;29;20232;-78
2021/01/07 08:56:50;;;;;;;27.30;15.50;;;;;;;3.46;72.57;98674.44;4881177;29;20185;-79
2021/01/07 08:59:25;;;;;;;26.35;15.00;;;;;;;3.37;72.82;98673.06;4896113;29;20586;-79
2021/01/07 09:02:17;;;;;;;27.65;13.68;;;;;;;3.25;73.39;98670.06;4883472;29;20264;-78
2021/01/07 09:04:43;;;;;;;28.02;15.45;;;;;;;3.10;73.89;98676.91;4892050;29;20254;-78
2021/01/07 09:07:19;;;;;;;28.23;15.95;;;;;;;3.26;73.32;98672.66;4892178;29;20221;-79
2021/01/07 09:09:50;;;;;;;27.08;14.75;;;;;;;3.42;73.01;98670.19;4893986;29;20300;-81
2021/01/07 09:12:23;;;;;;;25.75;14.57;;;;;;;3.39;72.62;98673.84;4896026;29;20194;-79
2021/01/07 09:14:53;;;;;;;29.10;15.85;;;;;;;3.33;73.01;98674.09;4894733;29;20201;-79
2021/01/07 09:17:22;;;;;;;27.00;15.35;;;;;;;3.39;72.85;98668.53;4873616;29;22722;-79
2021/01/07 09:19:49;;;;;;;27.75;14.40;;;;;;;3.51;72.19;98673.28;4875496;29;20237;-80
2021/01/07 09:22:17;;;;;;;25.52;15.15;;;;;;;3.43;72.24;98671.91;4872768;29;20233;-79
2021/01/07 09:24:43;;;;;;;28.35;15.52;;;;;;;3.39;72.35;98663.22;4867504;29;20242;-79
2021/01/07 09:27:13;;;;;;;25.38;15.77;;;;;;;3.51;72.19;98665.31;4875591;29;20190;-79
2021/01/07 09:29:39;;;;;;;28.70;16.10;;;;;;;3.49;71.91;98659.22;4892277;29;20218;-80
2021/01/07 09:32:07;;;;;;;26.20;15.43;;;;;;;3.61;71.83;98663.97;4899050;29;20238;-80
2021/01/07 09:34:34;;;;;;;27.58;15.93;;;;;;;3.60;71.53;98666.72;4887498;29;20302;-79
2021/01/07 09:37:07;;;;;;;26.33;15.68;;;;;;;3.68;70.96;98665.44;4871827;29;20278;-79
2021/01/07 09:39:35;;;;;;;25.85;14.75;;;;;;;3.70;70.81;98660.91;4876108;29;20231;-80
2021/01/07 09:42:02;;;;;;;28.58;16.15;;;;;;;3.63;70.96;98662.13;4874407;29;20269;-81
2021/01/07 09:44:28;;;;;;;26.98;14.55;;;;;;;3.77;70.87;98662.34;4883833;29;20222;-80
2021/01/07 09:46:57;;;;;;;28.95;15.98;;;;;;;3.91;70.11;98659.91;4898884;29;20336;-80
2021/01/07 09:49:24;;;;;;;27.13;15.75;;;;;;;3.72;70.44;98661.69;4890647;29;20309;-78
2021/01/07 09:51:51;;;;;;;25.75;16.58;;;;;;;3.65;70.58;98660.25;4885636;29;20253;-78
2021/01/07 09:54:18;;;;;;;36.75;19.08;;;;;;;3.63;70.62;98662.13;4905559;29;20215;-79
2021/01/07 09:56:44;;;;;;;27.83;14.48;;;;;;;3.67;70.64;98663.69;4882443;29;20221;-79
2021/01/07 09:59:11;;;;;;;31.02;16.23;;;;;;;3.66;70.92;98661.13;4909054;28;20229;-79
2021/01/07 10:01:37;;;;;;;30.02;17.08;;;;;;;3.82;70.40;98663.00;4896041;29;20232;-79
2021/01/07 10:04:04;;;;;;;29.30;16.67;;;;;;;3.75;70.18;98666.88;4887673;29;20232;-79
2021/01/07 10:06:30;;;;;;;28.38;16.20;;;;;;;3.61;70.45;98653.31;4893348;29;20226;-79
2021/01/07 10:08:56;;;;;;;29.45;16.38;;;;;;;3.73;70.41;98655.44;4883041;29;20198;-80
2021/01/07 10:11:23;;;;;;;28.40;15.63;;;;;;;3.83;70.24;98655.88;4904196;29;20225;-80
2021/01/07 10:13:49;;;;;;;29.90;16.45;;;;;;;3.87;70.42;98655.69;4875932;29;20290;-80
2021/01/07 10:16:15;;;;;;;22.83;13.57;;;;;;;3.75;69.78;98655.38;4893049;29;20249;-80
2021/01/07 10:18:42;;;;;;;27.50;15.55;;;;;;;3.59;70.41;98651.69;4896707;29;20223;-79
2021/01/07 10:21:12;;;;;;;28.10;15.02;;;;;;;3.59;70.71;98646.38;4888619;29;20293;-80
2021/01/07 10:23:43;;;;;;;25.75;15.25;;;;;;;3.62;70.20;98655.09;4886573;29;20195;-80
2021/01/07 10:26:10;;;;;;;27.23;14.93;;;;;;;3.68;70.22;98651.25;4881501;29;20589;-79
2021/01/07 10:28:37;;;;;;;22.75;14.23;;;;;;;3.84;69.54;98642.50;4896323;29;20609;-79
2021/01/07 10:31:04;;;;;;;26.27;14.63;;;;;;;3.78;69.43;98645.44;4886771;29;20230;-79
2021/01/07 10:33:32;;;;;;;28.45;15.13;;;;;;;3.87;69.19;98639.72;4887633;29;20316;-79
2021/01/07 10:35:59;;;;;;;27.52;16.05;;;;;;;3.91;68.63;98635.97;4887713;29;20214;-78
2021/01/07 10:38:25;;;;;;;22.15;14.23;;;;;;;3.89;68.74;98631.66;4871614;29;20241;-79
2021/01/07 10:40:52;;;;;;;24.35;14.10;;;;;;;3.76;68.86;98631.38;4871554;29;20242;-84
2021/01/07 10:43:20;;;;;;;24.17;13.15;;;;;;;3.99;68.15;98631.13;4889744;29;20605;-80
2021/01/07 10:45:53;;;;;;;26.77;15.32;;;;;;;4.13;67.55;98631.38;4886290;29;20308;-79
2021/01/07 10:48:23;;;;;;;26.35;13.98;;;;;;;4.24;67.24;98618.41;4890631;29;20242;-79
2021/01/07 10:50:50;;;;;;;23.08;13.90;;;;;;;4.26;67.30;98616.53;4882982;29;20234;-79
2021/01/07 10:53:54;;;;;;;25.65;14.35;;;;;;;4.15;67.44;98629.50;4866424;29;20226;-79
2021/01/07 10:56:29;;;;;;;25.05;13.90;;;;;;;4.23;67.00;98611.34;4884097;29;20225;-80
2021/01/07 10:59:23;;;;;;;24.10;13.18;;;;;;;4.10;66.85;98610.22;4886932;29;20242;-78
2021/01/07 11:01:58;;;;;;;19.30;11.95;;;;;;;3.99;67.09;98611.69;4892983;29;20230;-79
2021/01/07 11:05:02;;;;;;;22.15;13.18;;;;;;;4.11;66.67;98613.75;4891913;29;20229;-80
2021/01/07 11:07:43;;;;;;;20.45;12.05;;;;;;;4.11;66.94;98605.78;4875637;29;20232;-79
2021/01/07 11:10:12;;;;;;;22.70;12.70;;;;;;;4.19;66.44;98608.91;4894002;29;20244;-79
2021/01/07 11:12:57;;;;;;;21.02;13.07;;;;;;;4.16;67.17;98603.75;4899335;29;20225;-81
2021/01/07 11:15:30;;;;;;;19.88;12.40;;;;;;;4.19;66.42;98606.25;4878867;29;20241;-80
2021/01/07 11:18:08;;;;;;;21.55;12.05;;;;;;;3.97;66.89;98598.44;4884262;29;20198;-81
2021/01/07 11:20:38;;;;;;;24.50;13.50;;;;;;;4.23;66.71;98600.72;4897746;29;20559;-80
2021/01/07 11:23:06;;;;;;;21.17;12.75;;;;;;;4.40;65.99;98594.56;4881811;29;20222;-79
2021/01/07 11:25:32;;;;;;;28.80;14.70;;;;;;;4.53;65.72;98593.88;4894089;29;20276;-79
2021/01/07 11:28:00;;;;;;;23.65;12.70;;;;;;;4.57;65.69;98591.94;4883311;29;20294;-79
2021/01/07 11:30:26;;;;;;;18.23;12.02;;;;;;;4.40;65.32;98591.91;4876277;29;20747;-79
2021/01/07 11:32:54;;;;;;;21.35;12.73;;;;;;;4.38;65.40;98591.13;4881562;29;20205;-79
2021/01/07 11:35:20;;;;;;;22.95;13.23;;;;;;;4.31;65.75;98589.69;4894974;29;20309;-78
2021/01/07 11:37:58;;;;;;;21.88;12.48;;;;;;;4.49;65.34;98576.31;4880776;29;20241;-80